Time;durP1;ratioP1;P1;durP2;ratioP2;P2;SDS_P1;SDS_P2;PMS_P1;PMS_P2;Temp;Humidity;BMP_temperature;BMP_pressure;BME280_temperature;BME280_humidity;BME280_pressure;Samples;Min_cycle;Max_cycle;Signal;HPM_P1;HPM_P2
2022/10/29 00:01:39;;;;;;;4.23;3.60;;;;;;;11.97;100.00;97146.09;5071229;27;101974;-65
2022/10/29 00:04:06;;;;;;;4.77;4.03;;;;;;;11.95;100.00;97154.31;5071513;27;105138;-65
2022/10/29 00:06:33;;;;;;;7.10;4.20;;;;;;;11.90;100.00;97156.94;5070732;27;105261;-65
2022/10/29 00:09:00;;;;;;;6.07;4.10;;;;;;;11.95;100.00;97165.00;5071417;27;102071;-65
2022/10/29 00:11:29;;;;;;;4.70;3.80;;;;;;;12.00;100.00;97153.63;5070962;27;105120;-65
2022/10/29 00:13:58;;;;;;;7.03;4.30;;;;;;;11.99;100.00;97157.34;5074356;27;104212;-65
2022/10/29 00:16:28;;;;;;;5.47;3.93;;;;;;;11.88;100.00;97163.53;5072789;27;102537;-65
2022/10/29 00:18:56;;;;;;;4.57;3.30;;;;;;;11.78;100.00;97164.16;5070507;27;105451;-65
2022/10/29 00:21:25;;;;;;;4.93;3.63;;;;;;;11.67;100.00;97161.56;5070964;27;101851;-65
2022/10/29 00:23:53;;;;;;;5.43;3.43;;;;;;;11.53;100.00;97161.00;5071020;27;104942;-65
2022/10/29 00:26:22;;;;;;;4.13;3.73;;;;;;;11.66;100.00;97157.28;5070694;27;105213;-65
2022/10/29 00:28:52;;;;;;;5.17;3.50;;;;;;;11.63;100.00;97161.22;5070846;27;101937;-65
2022/10/29 00:31:22;;;;;;;4.57;3.00;;;;;;;11.54;100.00;97161.78;5071037;27;105900;-65
2022/10/29 00:33:50;;;;;;;5.93;3.30;;;;;;;11.48;100.00;97157.41;5069311;27;105323;-65
2022/10/29 00:36:20;;;;;;;3.70;3.20;;;;;;;11.38;100.00;97159.88;5074369;27;101905;-65
2022/10/29 00:38:48;;;;;;;5.40;3.00;;;;;;;11.34;100.00;97156.09;5072006;27;102455;-65
2022/10/29 00:41:18;;;;;;;7.10;3.63;;;;;;;11.44;100.00;97150.97;5072517;27;101858;-65
2022/10/29 00:43:48;;;;;;;4.20;3.10;;;;;;;11.23;100.00;97154.25;5071826;27;103761;-65
2022/10/29 00:46:22;;;;;;;3.73;3.30;;;;;;;11.31;100.00;97153.88;5070069;27;105492;-65
2022/10/29 00:48:51;;;;;;;5.10;3.87;;;;;;;11.26;100.00;97148.44;5070283;27;101971;-65
2022/10/29 00:51:20;;;;;;;4.27;3.60;;;;;;;11.13;100.00;97157.50;5070755;27;105236;-65
2022/10/29 00:53:51;;;;;;;4.07;3.67;;;;;;;11.10;100.00;97159.84;5069623;27;106393;-65
2022/10/29 00:56:18;;;;;;;4.60;3.63;;;;;;;11.16;100.00;97161.56;5070885;27;101918;-65
2022/10/29 00:58:46;;;;;;;4.03;3.30;;;;;;;11.15;100.00;97166.09;5074795;27;102516;-65
2022/10/29 01:01:14;;;;;;;3.50;3.20;;;;;;;11.18;100.00;97164.81;5070570;27;102087;-65
2022/10/29 01:03:42;;;;;;;4.80;3.70;;;;;;;11.22;100.00;97164.09;5070453;27;105484;-65
2022/10/29 01:06:09;;;;;;;3.90;3.50;;;;;;;11.24;100.00;97158.53;5069972;27;105034;-65
2022/10/29 01:08:36;;;;;;;4.00;3.50;;;;;;;11.19;100.00;97166.41;5070350;27;101918;-65
2022/10/29 01:11:16;;;;;;;3.70;3.03;;;;;;;11.17;100.00;97163.97;5070397;27;105013;-65
2022/10/29 01:13:59;;;;;;;5.00;3.27;;;;;;;11.05;100.00;97162.38;5069589;27;105136;-65
2022/10/29 01:16:35;;;;;;;5.40;3.10;;;;;;;11.10;100.00;97159.84;5069793;27;101898;-65
2022/10/29 01:19:14;;;;;;;4.00;2.90;;;;;;;11.08;100.00;97151.28;5073324;27;103755;-65
2022/10/29 01:21:45;;;;;;;3.53;2.90;;;;;;;11.02;100.00;97160.22;5070298;27;101872;-65
2022/10/29 01:24:41;;;;;;;3.40;3.00;;;;;;;11.05;100.00;97167.72;5071530;27;102378;-65
2022/10/29 01:27:49;;;;;;;3.50;2.90;;;;;;;11.08;100.00;97159.25;5069278;27;103781;-65
2022/10/29 01:30:22;;;;;;;3.47;3.07;;;;;;;11.04;100.00;97155.44;5070100;27;102177;-65
2022/10/29 01:32:58;;;;;;;4.20;3.37;;;;;;;10.92;100.00;97155.47;5070050;27;104838;-65
2022/10/29 01:35:33;;;;;;;4.70;3.03;;;;;;;10.94;100.00;97155.22;5069284;27;102752;-65
2022/10/29 01:38:11;;;;;;;4.87;3.37;;;;;;;10.99;100.00;97152.69;5070086;27;101887;-65
2022/10/29 01:40:49;;;;;;;4.43;3.03;;;;;;;10.95;100.00;97146.22;5070109;27;105751;-65
2022/10/29 01:43:23;;;;;;;8.23;2.90;;;;;;;10.84;100.00;97145.19;5072434;27;103774;-65
2022/10/29 01:45:56;;;;;;;5.57;3.00;;;;;;;10.98;100.00;97153.72;5069517;27;105708;-65
2022/10/29 01:48:31;;;;;;;4.90;3.23;;;;;;;10.95;100.00;97151.56;5069032;27;105339;-65
2022/10/29 01:51:02;;;;;;;4.03;3.07;;;;;;;11.01;100.00;97151.41;5069813;27;101805;-65
2022/10/29 01:53:31;;;;;;;3.67;2.70;;;;;;;10.84;100.00;97149.72;5069524;27;104889;-65
2022/10/29 01:55:59;;;;;;;4.23;2.87;;;;;;;10.88;100.00;97153.50;5070519;27;101825;-65
2022/10/29 01:58:26;;;;;;;3.80;3.00;;;;;;;10.91;100.00;97145.06;5069399;27;101957;-65
2022/10/29 02:01:03;;;;;;;4.07;2.90;;;;;;;10.81;100.00;97150.16;5069713;27;105998;-65
2022/10/29 02:03:43;;;;;;;4.23;3.33;;;;;;;10.80;100.00;97146.69;5069175;27;104019;-65
2022/10/29 02:06:21;;;;;;;4.10;2.87;;;;;;;10.79;100.00;97149.59;5073089;27;102260;-65
2022/10/29 02:08:56;;;;;;;3.00;2.73;;;;;;;10.80;100.00;97143.22;5069198;27;105518;-65
2022/10/29 02:11:27;;;;;;;5.17;3.40;;;;;;;10.82;100.00;97147.28;5070702;27;101972;-65
2022/10/29 02:14:02;;;;;;;5.00;2.80;;;;;;;10.74;100.00;97152.16;5071354;27;102363;-65
2022/10/29 02:16:30;;;;;;;5.97;3.13;;;;;;;10.78;100.00;97145.28;5070486;27;102609;-65
2022/10/29 02:19:00;;;;;;;3.43;2.77;;;;;;;10.81;100.00;97147.50;5069308;27;102017;-65
2022/10/29 02:21:27;;;;;;;4.33;2.70;;;;;;;10.81;100.00;97148.31;5070507;27;102589;-65
2022/10/29 02:23:55;;;;;;;4.77;3.23;;;;;;;10.78;100.00;97150.63;5070595;27;102714;-65
2022/10/29 02:26:21;;;;;;;4.43;2.93;;;;;;;10.73;100.00;97148.66;5069038;27;102211;-65
2022/10/29 02:28:48;;;;;;;4.37;3.23;;;;;;;10.78;100.00;97155.94;5073413;27;102400;-65
2022/10/29 02:31:16;;;;;;;4.53;3.13;;;;;;;10.69;100.00;97152.81;5070595;27;101808;-65
2022/10/29 02:33:43;;;;;;;5.47;3.33;;;;;;;10.52;100.00;97159.88;5071209;27;102316;-65
2022/10/29 02:36:11;;;;;;;3.93;3.13;;;;;;;10.57;100.00;97169.84;5069777;27;102699;-65
2022/10/29 02:38:38;;;;;;;5.80;2.70;;;;;;;10.45;100.00;97164.50;5069522;27;102166;-65
2022/10/29 02:41:05;;;;;;;2.90;2.70;;;;;;;10.49;100.00;97168.34;5070686;27;102416;-65
2022/10/29 02:43:32;;;;;;;4.73;2.83;;;;;;;10.44;100.00;97167.41;5068472;27;105106;-65
2022/10/29 02:46:13;;;;;;;4.27;3.03;;;;;;;10.51;100.00;97170.75;5070346;27;101834;-65
2022/10/29 02:48:40;;;;;;;5.33;3.00;;;;;;;10.47;100.00;97165.06;5070006;27;102874;-65
2022/10/29 02:51:07;;;;;;;3.17;2.87;;;;;;;10.47;100.00;97164.28;5071815;27;105825;-65
2022/10/29 02:53:36;;;;;;;5.63;3.63;;;;;;;10.53;100.00;97163.38;5068727;27;103928;-65
2022/10/29 02:56:03;;;;;;;5.57;3.00;;;;;;;10.53;100.00;97163.38;5068197;27;105540;-65
2022/10/29 02:58:30;;;;;;;3.43;3.10;;;;;;;10.44;100.00;97162.06;5071171;27;101886;-65
2022/10/29 03:00:58;;;;;;;3.97;3.57;;;;;;;10.32;100.00;97172.72;5072522;27;106459;-65
2022/10/29 03:03:25;;;;;;;4.30;2.87;;;;;;;10.19;100.00;97166.81;5071668;27;105216;-65
2022/10/29 03:05:53;;;;;;;3.13;2.93;;;;;;;10.24;100.00;97175.69;5072427;27;101763;-65
2022/10/29 03:08:20;;;;;;;3.97;2.77;;;;;;;10.20;100.00;97168.41;5072323;27;105318;-65
2022/10/29 03:10:49;;;;;;;4.10;3.27;;;;;;;10.11;100.00;97164.47;5071734;27;104000;-65
2022/10/29 03:13:16;;;;;;;4.37;3.20;;;;;;;10.14;100.00;97167.47;5075407;27;101718;-65
2022/10/29 03:15:44;;;;;;;4.23;3.47;;;;;;;10.16;100.00;97168.06;5071710;27;104301;-65
2022/10/29 03:18:12;;;;;;;6.47;3.30;;;;;;;10.12;100.00;97169.56;5072062;27;101950;-65
2022/10/29 03:20:39;;;;;;;3.80;3.40;;;;;;;10.15;100.00;97165.63;5072272;27;105715;-65
2022/10/29 03:23:06;;;;;;;3.43;3.13;;;;;;;10.13;100.00;97170.34;5071173;27;105135;-65
2022/10/29 03:25:33;;;;;;;7.43;3.50;;;;;;;10.12;100.00;97164.25;5072268;27;102304;-65
2022/10/29 03:28:02;;;;;;;3.50;2.80;;;;;;;10.16;100.00;97168.06;5072171;27;105664;-65
2022/10/29 03:30:29;;;;;;;4.73;3.50;;;;;;;10.18;100.00;97170.47;5071242;27;103730;-65
2022/10/29 03:32:56;;;;;;;3.63;3.30;;;;;;;10.07;100.00;97174.75;5075652;27;101895;-65
2022/10/29 03:35:23;;;;;;;3.60;2.77;;;;;;;9.98;100.00;97176.06;5072639;27;102986;-65
2022/10/29 03:37:51;;;;;;;5.40;3.90;;;;;;;9.96;100.00;97177.31;5072223;27;101944;-65
2022/10/29 03:40:19;;;;;;;3.97;3.50;;;;;;;10.05;100.00;97171.50;5072031;27;104082;-65
2022/10/29 03:42:46;;;;;;;4.70;3.60;;;;;;;10.11;100.00;97167.94;5071287;27;103874;-65
2022/10/29 03:45:15;;;;;;;5.43;3.40;;;;;;;10.01;100.00;97166.81;5071701;27;101741;-65
2022/10/29 03:47:42;;;;;;;4.67;3.80;;;;;;;9.98;100.00;97172.63;5071209;27;103802;-65
2022/10/29 03:50:10;;;;;;;4.40;3.60;;;;;;;9.83;100.00;97174.88;5070929;27;105265;-65
2022/10/29 03:52:37;;;;;;;7.23;3.20;;;;;;;9.96;100.00;97172.00;5071737;27;101985;-65
2022/10/29 03:55:06;;;;;;;5.07;3.00;;;;;;;9.99;100.00;97171.56;5075969;27;102432;-65
2022/10/29 03:57:32;;;;;;;3.37;3.07;;;;;;;9.84;100.00;97173.84;5073254;27;102331;-65
2022/10/29 04:00:00;;;;;;;3.97;2.70;;;;;;;9.78;100.00;97175.56;5071886;27;104861;-65
2022/10/29 04:02:29;;;;;;;3.67;3.03;;;;;;;9.67;100.00;97178.16;5071259;27;104934;-65
2022/10/29 04:04:56;;;;;;;4.07;3.70;;;;;;;9.74;100.00;97176.22;5072697;27;102302;-65
2022/10/29 04:07:24;;;;;;;6.03;3.80;;;;;;;9.67;100.00;97173.69;5071492;27;103712;-65
2022/10/29 04:09:51;;;;;;;7.17;3.70;;;;;;;9.73;100.00;97174.59;5070715;27;103945;-65
2022/10/29 04:12:18;;;;;;;4.20;3.33;;;;;;;9.73;100.00;97177.25;5071691;27;101910;-65
2022/10/29 04:14:47;;;;;;;5.87;3.37;;;;;;;9.82;100.00;97182.03;5072966;27;102871;-65
2022/10/29 04:17:14;;;;;;;6.13;3.60;;;;;;;9.71;100.00;97189.97;5074367;27;103757;-65
2022/10/29 04:19:43;;;;;;;4.27;3.23;;;;;;;9.68;100.00;97190.41;5072673;27;103354;-65
2022/10/29 04:22:11;;;;;;;5.30;3.20;;;;;;;9.76;100.00;97190.09;5070857;27;103825;-65
2022/10/29 04:24:38;;;;;;;5.90;3.40;;;;;;;9.68;100.00;97195.72;5054629;27;102433;-65
2022/10/29 04:27:06;;;;;;;4.53;3.10;;;;;;;9.72;100.00;97191.59;5072567;27;102316;-65
2022/10/29 04:29:33;;;;;;;4.20;3.30;;;;;;;9.80;100.00;97188.59;5070550;27;105030;-65
2022/10/29 04:32:00;;;;;;;3.73;3.10;;;;;;;9.72;100.00;97179.13;5071555;27;101927;-65
2022/10/29 04:34:28;;;;;;;3.97;3.03;;;;;;;9.82;100.00;97186.53;5070650;27;105397;-65
2022/10/29 04:36:56;;;;;;;4.50;3.20;;;;;;;9.83;100.00;97182.84;5070255;27;104249;-65
2022/10/29 04:39:22;;;;;;;4.53;3.27;;;;;;;9.82;100.00;97197.16;5074515;27;101879;-65
2022/10/29 04:42:05;;;;;;;10.03;3.53;;;;;;;9.80;100.00;97204.53;5070196;27;105200;-64
2022/10/29 04:44:31;;;;;;;7.60;4.20;;;;;;;9.84;100.00;97201.22;4991245;28;101992;-65
2022/10/29 04:46:59;;;;;;;3.60;3.30;;;;;;;9.79;100.00;97205.56;4991168;28;105162;-64
2022/10/29 04:49:26;;;;;;;5.10;3.50;;;;;;;9.80;100.00;97204.53;4990469;28;105419;-64
2022/10/29 04:51:53;;;;;;;5.87;3.53;;;;;;;9.86;100.00;97190.38;4991680;28;101912;-64
2022/10/29 04:54:27;;;;;;;4.17;3.70;;;;;;;9.88;100.00;97185.63;4991902;28;103683;-64
2022/10/29 04:56:54;;;;;;;4.13;3.53;;;;;;;9.91;100.00;97182.50;4988275;28;104196;-64
2022/10/29 04:59:22;;;;;;;5.27;3.90;;;;;;;9.95;100.00;97173.88;5008115;28;101954;-64
2022/10/29 05:01:49;;;;;;;7.63;4.47;;;;;;;10.03;100.00;97176.19;4994906;28;105416;-65
2022/10/29 05:04:17;;;;;;;4.60;4.10;;;;;;;10.09;100.00;97166.56;4992026;28;102045;-65
2022/10/29 05:06:43;;;;;;;8.63;3.97;;;;;;;10.18;100.00;97159.84;4991663;28;103701;-64
2022/10/29 05:09:11;;;;;;;4.77;4.30;;;;;;;10.15;100.00;97170.94;4991250;28;105151;-65
2022/10/29 05:11:40;;;;;;;7.47;3.70;;;;;;;10.02;100.00;97173.75;5008784;28;102050;-65
2022/10/29 05:14:07;;;;;;;6.03;3.90;;;;;;;10.02;100.00;97179.06;4991548;28;104921;-64
2022/10/29 05:16:34;;;;;;;7.40;3.93;;;;;;;9.98;100.00;97175.28;5007982;28;103443;-65
2022/10/29 05:19:02;;;;;;;5.23;3.80;;;;;;;10.00;100.00;97181.16;4991272;28;103530;-65
2022/10/29 05:21:29;;;;;;;4.53;3.93;;;;;;;10.11;100.00;97180.41;5017633;27;105675;-64
2022/10/29 05:23:57;;;;;;;5.13;3.63;;;;;;;10.12;100.00;97176.72;5073135;27;101754;-64
2022/10/29 05:26:25;;;;;;;7.63;4.10;;;;;;;10.20;100.00;97179.06;5069887;27;105157;-64
2022/10/29 05:28:53;;;;;;;7.03;4.50;;;;;;;10.26;100.00;97183.44;5069186;27;105374;-64
2022/10/29 05:31:20;;;;;;;4.63;4.10;;;;;;;10.28;100.00;97174.22;5070231;27;101942;-64
2022/10/29 05:33:48;;;;;;;5.57;4.07;;;;;;;10.36;100.00;97173.84;5070143;27;105104;-64
2022/10/29 05:36:15;;;;;;;6.93;4.63;;;;;;;10.35;100.00;97176.78;5069289;27;105574;-64
2022/10/29 05:38:42;;;;;;;8.33;4.70;;;;;;;10.37;100.00;97174.69;5070059;27;101979;-64
2022/10/29 05:41:09;;;;;;;6.87;4.30;;;;;;;10.43;100.00;97182.56;5070303;27;104925;-64
2022/10/29 05:43:37;;;;;;;5.03;4.50;;;;;;;10.50;100.00;97180.59;5073827;27;102586;-63
2022/10/29 05:46:05;;;;;;;6.37;4.57;;;;;;;10.58;100.00;97176.78;5069464;27;103534;-63
2022/10/29 05:48:32;;;;;;;6.93;5.10;;;;;;;10.67;100.00;97170.06;5067585;27;105898;-63
2022/10/29 05:51:01;;;;;;;8.50;5.13;;;;;;;10.67;100.00;97165.56;5071083;27;101962;-63
2022/10/29 05:53:28;;;;;;;6.20;4.80;;;;;;;10.65;100.00;97161.50;5069474;27;104110;-63
2022/10/29 05:55:55;;;;;;;6.10;4.70;;;;;;;10.76;100.00;97166.00;5068211;27;105617;-63
2022/10/29 05:58:22;;;;;;;5.30;4.27;;;;;;;10.78;100.00;97164.75;5069469;27;102229;-63
2022/10/29 06:00:49;;;;;;;5.53;4.47;;;;;;;10.85;100.00;97169.94;5069938;27;104912;-63
2022/10/29 06:03:20;;;;;;;7.80;4.07;;;;;;;10.91;100.00;97166.34;5068837;27;105181;-63
2022/10/29 06:05:48;;;;;;;7.07;4.33;;;;;;;10.96;100.00;97169.13;5073035;27;102246;-63
2022/10/29 06:08:16;;;;;;;7.47;4.10;;;;;;;11.01;100.00;97167.38;5068697;27;105626;-63
2022/10/29 06:10:42;;;;;;;4.47;3.97;;;;;;;10.96;100.00;97169.91;5069822;27;102007;-63
2022/10/29 06:13:11;;;;;;;5.60;4.53;;;;;;;10.97;100.00;97170.75;5069925;27;105162;-63
2022/10/29 06:15:39;;;;;;;5.67;4.70;;;;;;;11.03;100.00;97167.97;5069118;27;105085;-63
2022/10/29 06:18:08;;;;;;;5.60;4.43;;;;;;;11.10;100.00;97171.31;5070974;27;101861;-63
2022/10/29 06:20:38;;;;;;;6.43;4.13;;;;;;;11.17;100.00;97165.84;5069337;27;105814;-63
2022/10/29 06:23:06;;;;;;;6.67;4.70;;;;;;;11.27;100.00;97174.03;5068763;27;105558;-63
2022/10/29 06:25:33;;;;;;;6.43;4.90;;;;;;;11.31;100.00;97173.34;5071196;27;101767;-63
2022/10/29 06:28:02;;;;;;;6.10;4.80;;;;;;;11.31;100.00;97170.69;5072102;27;104122;-63
2022/10/29 06:30:30;;;;;;;5.37;4.40;;;;;;;11.37;100.00;97167.06;5069425;27;101986;-63
2022/10/29 06:32:58;;;;;;;5.93;4.67;;;;;;;11.38;100.00;97167.88;5068112;27;103595;-63
2022/10/29 06:35:25;;;;;;;5.53;4.90;;;;;;;11.40;100.00;97171.13;5068817;27;104314;-63
2022/10/29 06:37:54;;;;;;;6.27;4.57;;;;;;;11.49;100.00;97172.34;5069313;27;101936;-64
2022/10/29 06:40:21;;;;;;;6.43;5.03;;;;;;;11.55;100.00;97163.44;5069032;27;105634;-63
2022/10/29 06:42:48;;;;;;;5.93;5.00;;;;;;;11.56;100.00;97159.72;5068377;27;104065;-63
2022/10/29 06:45:15;;;;;;;6.23;4.90;;;;;;;11.63;100.00;97155.06;5069401;27;102017;-63
2022/10/29 06:47:44;;;;;;;7.00;4.60;;;;;;;11.66;100.00;97158.06;5068584;27;105123;-63
2022/10/29 06:50:13;;;;;;;8.37;4.93;;;;;;;11.68;100.00;97152.50;5073687;27;102787;-63
2022/10/29 06:52:40;;;;;;;7.73;4.70;;;;;;;11.69;100.00;97160.28;5069177;27;103772;-63
2022/10/29 06:55:10;;;;;;;7.87;5.00;;;;;;;11.71;100.00;97160.00;5068316;27;105502;-63
2022/10/29 06:57:37;;;;;;;8.57;4.47;;;;;;;11.74;100.00;97165.69;5068945;27;102030;-64
2022/10/29 07:00:05;;;;;;;5.63;4.10;;;;;;;11.78;100.00;97158.03;5069067;27;105862;-63
2022/10/29 07:02:32;;;;;;;4.70;4.20;;;;;;;11.88;100.00;97159.00;5068478;27;105955;-63
2022/10/29 07:04:59;;;;;;;8.10;4.80;;;;;;;11.88;100.00;97158.22;5068787;27;101946;-63
2022/10/29 07:07:28;;;;;;;7.90;4.93;;;;;;;11.88;100.00;97174.22;5069093;27;104834;-63
2022/10/29 07:09:57;;;;;;;7.83;5.07;;;;;;;11.90;100.00;97174.75;5068393;27;105384;-63
2022/10/29 07:12:30;;;;;;;11.20;7.10;;;;;;;11.96;100.00;97173.81;5072240;27;101864;-63
2022/10/29 07:14:58;;;;;;;12.20;7.03;;;;;;;12.06;100.00;97182.81;5068379;27;105035;-63
2022/10/29 07:17:24;;;;;;;6.30;5.40;;;;;;;12.17;100.00;97183.78;5068737;27;101968;-63
2022/10/29 07:19:52;;;;;;;12.93;4.77;;;;;;;12.31;100.00;97175.22;5068992;27;103881;-63
2022/10/29 07:22:18;;;;;;;6.80;3.97;;;;;;;12.49;100.00;97188.31;5068358;27;105263;-63
2022/10/29 07:24:45;;;;;;;8.87;4.40;;;;;;;12.70;100.00;97184.91;5068906;27;101712;-63
2022/10/29 07:27:12;;;;;;;5.40;4.50;;;;;;;12.87;100.00;97176.91;5068752;27;105481;-63
2022/10/29 07:29:41;;;;;;;7.40;4.10;;;;;;;13.01;100.00;97172.84;5067834;27;104108;-63
2022/10/29 07:32:08;;;;;;;6.33;4.33;;;;;;;13.17;100.00;97166.66;5072050;27;102070;-63
2022/10/29 07:34:35;;;;;;;8.20;3.37;;;;;;;13.27;100.00;97161.44;5069313;27;101945;-63
2022/10/29 07:37:03;;;;;;;4.70;3.37;;;;;;;13.48;100.00;97165.97;5068740;27;102055;-63
2022/10/29 07:39:29;;;;;;;9.03;3.77;;;;;;;13.62;100.00;97172.56;5068608;27;104976;-63
2022/10/29 07:41:57;;;;;;;7.00;4.23;;;;;;;13.73;100.00;97180.44;5067587;27;104074;-63
2022/10/29 07:44:24;;;;;;;7.17;4.10;;;;;;;13.88;100.00;97193.16;5070215;27;102070;-63
2022/10/29 07:46:53;;;;;;;7.13;4.90;;;;;;;13.96;100.00;97190.03;5072036;27;103771;-63
2022/10/29 07:49:20;;;;;;;16.50;11.50;;;;;;;14.08;100.00;97196.03;5072173;27;103295;-64
2022/10/29 07:51:48;;;;;;;23.17;12.77;;;;;;;14.12;100.00;97200.63;5072220;27;101791;-63
2022/10/29 07:54:16;;;;;;;20.60;12.17;;;;;;;14.17;100.00;97199.88;5073744;27;105516;-63
2022/10/29 07:56:42;;;;;;;17.03;10.67;;;;;;;14.32;100.00;97192.00;5070838;27;101889;-63
2022/10/29 07:59:13;;;;;;;15.97;9.33;;;;;;;14.43;100.00;97191.03;5070631;27;105569;-63
2022/10/29 08:01:40;;;;;;;13.13;8.43;;;;;;;14.47;100.00;97192.97;5071235;27;105372;-63
2022/10/29 08:04:08;;;;;;;11.40;6.80;;;;;;;14.52;100.00;97190.34;5073456;27;101887;-63
2022/10/29 08:06:35;;;;;;;11.17;5.80;;;;;;;14.63;100.00;97191.22;5071635;27;105141;-63
2022/10/29 08:09:03;;;;;;;6.07;4.10;;;;;;;14.73;100.00;97191.31;5070722;27;105451;-63
2022/10/29 08:11:32;;;;;;;8.40;4.17;;;;;;;14.89;100.00;97193.03;5071602;27;101848;-63
2022/10/29 08:13:59;;;;;;;7.13;4.60;;;;;;;14.96;100.00;97191.75;5071493;27;105475;-63
2022/10/29 08:16:26;;;;;;;7.53;4.53;;;;;;;15.08;100.00;97194.19;5074521;27;105327;-63
2022/10/29 08:18:53;;;;;;;9.43;4.60;;;;;;;15.29;100.00;97188.72;5071336;27;105236;-63
2022/10/29 08:21:22;;;;;;;6.77;4.00;;;;;;;15.49;100.00;97191.50;5070658;27;104090;-63
2022/10/29 08:23:49;;;;;;;6.03;3.37;;;;;;;15.63;100.00;97187.28;5071401;27;101967;-63
2022/10/29 08:26:19;;;;;;;7.47;3.60;;;;;;;15.78;100.00;97189.22;5071224;27;104958;-63
2022/10/29 08:28:47;;;;;;;3.87;3.10;;;;;;;15.95;100.00;97176.38;5070785;27;104169;-63
2022/10/29 08:31:14;;;;;;;6.53;4.13;;;;;;;15.92;100.00;97176.94;5072657;27;101801;-63
2022/10/29 08:33:42;;;;;;;6.90;3.33;;;;;;;15.93;100.00;97182.03;5071219;27;104923;-63
2022/10/29 08:36:09;;;;;;;5.50;3.60;;;;;;;15.96;100.00;97191.44;5070429;27;104121;-63
2022/10/29 08:38:38;;;;;;;5.77;3.90;;;;;;;16.04;100.00;97191.72;5074489;27;102001;-63
2022/10/29 08:41:30;;;;;;;5.77;3.40;;;;;;;15.97;100.00;97188.47;5070521;27;105138;-63
2022/10/29 08:44:25;;;;;;;6.80;3.17;;;;;;;16.11;100.00;97189.56;5070802;27;101903;-63
2022/10/29 08:46:57;;;;;;;4.47;3.70;;;;;;;16.13;100.00;97192.78;5071138;27;104024;-62
2022/10/29 08:49:32;;;;;;;4.60;3.27;;;;;;;16.26;100.00;97192.28;5069612;27;105363;-62
2022/10/29 08:52:04;;;;;;;4.57;3.70;;;;;;;16.27;100.00;97191.22;5070856;27;101781;-62
2022/10/29 08:54:36;;;;;;;5.10;2.73;;;;;;;16.35;100.00;97184.50;5070541;27;103869;-62
2022/10/29 08:57:13;;;;;;;6.27;3.27;;;;;;;16.45;100.00;97187.25;5069564;27;105352;-62
2022/10/29 08:59:46;;;;;;;5.67;3.20;;;;;;;16.57;100.00;97177.03;5070648;27;101777;-62
2022/10/29 09:02:17;;;;;;;8.03;3.53;;;;;;;16.71;100.00;97178.09;5073571;27;105446;-62
2022/10/29 09:04:44;;;;;;;5.37;3.57;;;;;;;16.87;100.00;97179.69;5070782;27;101950;-62
2022/10/29 09:07:25;;;;;;;6.60;3.30;;;;;;;17.10;100.00;97181.78;5070859;27;105106;-63
2022/10/29 09:09:59;;;;;;;6.33;3.33;;;;;;;17.30;100.00;97174.50;5069765;27;105919;-62
2022/10/29 09:13:01;;;;;;;5.43;3.00;;;;;;;17.40;100.00;97166.44;5070536;27;101925;-62
2022/10/29 09:15:45;;;;;;;7.33;2.80;;;;;;;17.57;100.00;97172.28;5039460;27;105063;-62
2022/10/29 09:18:28;;;;;;;6.53;2.90;;;;;;;17.79;100.00;97169.22;5069602;27;104328;-63
2022/10/29 09:21:01;;;;;;;5.07;2.53;;;;;;;18.02;100.00;97163.16;5072026;27;101916;-62
2022/10/29 09:23:51;;;;;;;4.40;2.67;;;;;;;18.24;100.00;97160.88;5070583;27;105618;-62
2022/10/29 09:26:26;;;;;;;6.57;2.50;;;;;;;18.19;100.00;97153.66;5073171;27;105453;-62
2022/10/29 09:29:06;;;;;;;8.60;2.80;;;;;;;18.19;100.00;97152.84;5070473;27;104023;-62
2022/10/29 09:31:41;;;;;;;6.30;2.60;;;;;;;18.08;100.00;97149.41;5069464;27;105372;-62
2022/10/29 09:34:16;;;;;;;7.30;2.57;;;;;;;18.06;100.00;97142.69;5072017;27;101676;-62
2022/10/29 09:36:44;;;;;;;5.73;2.50;;;;;;;18.09;100.00;97142.16;5070262;27;105106;-63
2022/10/29 09:39:15;;;;;;;4.03;2.27;;;;;;;18.10;100.00;97141.06;5069539;27;105238;-63
2022/10/29 09:41:45;;;;;;;5.50;2.43;;;;;;;18.10;100.00;97133.78;5070112;27;101803;-62
2022/10/29 09:44:21;;;;;;;4.13;2.50;;;;;;;18.20;100.00;97127.53;5069792;27;103959;-63
2022/10/29 09:47:00;;;;;;;5.47;2.17;;;;;;;18.27;100.00;97134.22;5074684;27;102464;-63
2022/10/29 09:49:42;;;;;;;7.17;2.70;;;;;;;18.42;100.00;97130.63;5069421;27;104965;-62
2022/10/29 09:52:15;;;;;;;4.53;2.17;;;;;;;18.63;100.00;97135.56;5069397;27;105427;-63
2022/10/29 09:54:42;;;;;;;9.03;2.37;;;;;;;18.74;100.00;97126.28;5070131;27;102031;-63
2022/10/29 09:57:19;;;;;;;7.10;2.43;;;;;;;18.93;100.00;97126.38;5069258;27;104802;-62
2022/10/29 09:59:51;;;;;;;5.40;2.40;;;;;;;19.03;100.00;97132.47;5069280;27;106688;-62
2022/10/29 10:02:28;;;;;;;4.60;2.60;;;;;;;19.10;100.00;97124.03;5069218;27;101870;-62
2022/10/29 10:05:02;;;;;;;7.47;2.60;;;;;;;19.18;100.00;97118.03;5069196;27;104943;-62
2022/10/29 10:07:29;;;;;;;18.30;10.70;;;;;;;19.29;100.00;97116.88;5068562;27;105793;-62
2022/10/29 10:09:58;;;;;;;31.77;20.73;;;;;;;19.35;100.00;97118.41;5073012;27;101811;-63
2022/10/29 10:12:29;;;;;;;16.23;7.83;;;;;;;19.42;100.00;97114.28;5067398;27;104031;-63
2022/10/29 10:15:06;;;;;;;7.77;4.60;;;;;;;19.50;100.00;97118.22;5069265;27;101896;-62
2022/10/29 10:17:59;;;;;;;8.03;2.77;;;;;;;19.58;100.00;97112.19;5069129;27;105576;-62
2022/10/29 10:20:29;;;;;;;7.87;2.93;;;;;;;19.50;100.00;97112.84;5044873;27;105610;-62
2022/10/29 10:22:56;;;;;;;4.93;2.77;;;;;;;19.56;100.00;97117.06;5069223;27;102208;-62
2022/10/29 10:25:32;;;;;;;7.30;2.70;;;;;;;19.70;100.00;97105.25;5068666;27;104779;-62
2022/10/29 10:28:04;;;;;;;5.43;2.23;;;;;;;19.86;100.00;97105.84;5068279;27;104282;-63
2022/10/29 10:30:31;;;;;;;5.03;2.40;;;;;;;19.90;100.00;97104.97;5070515;27;101949;-63
2022/10/29 10:33:12;;;;;;;7.90;2.60;;;;;;;19.82;100.00;97102.94;5071480;27;105574;-62
2022/10/29 10:35:39;;;;;;;5.37;2.00;;;;;;;19.88;100.00;97107.16;5069245;27;101847;-62
2022/10/29 10:38:10;;;;;;;6.87;3.00;;;;;;;19.74;100.00;97105.47;5069424;27;105037;-63
2022/10/29 10:40:38;;;;;;;7.77;3.10;;;;;;;19.69;100.00;97106.38;5068850;27;105526;-63
2022/10/29 10:43:07;;;;;;;6.70;2.97;;;;;;;19.62;100.00;97102.41;5068941;27;101898;-62
2022/10/29 10:45:38;;;;;;;14.23;4.60;;;;;;;19.61;100.00;97090.81;5069498;27;104910;-62
2022/10/29 10:48:10;;;;;;;6.97;3.50;;;;;;;19.54;100.00;97098.47;5068225;27;105588;-63
2022/10/29 10:50:37;;;;;;;5.40;2.80;;;;;;;19.52;100.00;97091.75;5070627;27;101954;-63
2022/10/29 10:53:16;;;;;;;6.03;3.07;;;;;;;19.80;100.00;97096.22;5069135;27;103916;-62
2022/10/29 10:55:48;;;;;;;8.83;3.50;;;;;;;19.83;100.00;97090.25;5071956;27;102814;-63
2022/10/29 10:58:24;;;;;;;8.27;3.27;;;;;;;20.30;100.00;97090.09;5069040;27;103849;-63
2022/10/29 11:00:57;;;;;;;6.83;3.60;;;;;;;20.73;100.00;97084.22;5068589;27;105510;-63
2022/10/29 11:03:33;;;;;;;7.13;2.53;;;;;;;21.13;100.00;97077.25;5068963;27;101847;-62
2022/10/29 11:06:06;;;;;;;7.87;2.83;;;;;;;21.13;100.00;97071.84;5070649;27;102857;-62
2022/10/29 11:08:38;;;;;;;6.40;2.70;;;;;;;20.72;100.00;97073.69;5068144;27;105384;-63
2022/10/29 11:11:09;;;;;;;6.87;2.70;;;;;;;21.29;100.00;97068.56;5068900;27;101932;-62
2022/10/29 11:13:40;;;;;;;11.47;2.90;;;;;;;20.94;100.00;97060.34;5068992;27;105059;-63
2022/10/29 11:16:16;;;;;;;7.43;2.70;;;;;;;21.39;100.00;97059.41;5067979;27;105573;-63
2022/10/29 11:18:49;;;;;;;7.10;2.10;;;;;;;21.81;100.00;97064.50;5073125;27;102115;-63
2022/10/29 11:21:21;;;;;;;8.00;3.07;;;;;;;21.93;100.00;97062.06;5071855;27;105347;-63
2022/10/29 11:23:57;;;;;;;5.97;2.20;;;;;;;22.11;100.00;97058.38;5072321;27;101812;-63
2022/10/29 11:26:30;;;;;;;7.30;2.47;;;;;;;22.28;100.00;97056.59;5072183;27;105187;-62
2022/10/29 11:29:04;;;;;;;5.70;2.47;;;;;;;22.26;100.00;97056.09;5073430;27;102855;-63
2022/10/29 11:31:41;;;;;;;7.53;2.43;;;;;;;22.46;100.00;97049.41;5072373;27;102080;-63